sensor_id;sensor_type;location;lat;lon;timestamp;P1;P2;P0
68198;PMS7003;55021;51.554;17.044;2023-06-01T00:02:54;30.50;29.25;20.75
68198;PMS7003;55021;51.554;17.044;2023-06-01T00:17:57;33.50;32.25;22.75
68198;PMS7003;55021;51.554;17.044;2023-06-01T00:32:59;39.50;33.75;22.25
68198;PMS7003;55021;51.554;17.044;2023-06-01T00:48:01;35.00;30.00;19.75
68198;PMS7003;55021;51.554;17.044;2023-06-01T01:03:04;36.75;32.50;22.25
68198;PMS7003;55021;51.554;17.044;2023-06-01T01:18:11;31.50;31.00;21.50
68198;PMS7003;55021;51.554;17.044;2023-06-01T01:33:17;32.50;31.75;20.50
68198;PMS7003;55021;51.554;17.044;2023-06-01T01:48:22;38.00;35.00;24.25
68198;PMS7003;55021;51.554;17.044;2023-06-01T02:03:30;37.75;35.00;24.00
68198;PMS7003;55021;51.554;17.044;2023-06-01T02:18:32;41.50;36.50;24.50
68198;PMS7003;55021;51.554;17.044;2023-06-01T02:33:35;35.50;34.50;23.50
68198;PMS7003;55021;51.554;17.044;2023-06-01T02:48:38;32.00;31.00;21.75
68198;PMS7003;55021;51.554;17.044;2023-06-01T03:03:40;40.00;33.50;22.75
68198;PMS7003;55021;51.554;17.044;2023-06-01T03:18:43;38.25;35.25;23.50
68198;PMS7003;55021;51.554;17.044;2023-06-01T03:33:45;39.50;34.50;23.75
68198;PMS7003;55021;51.554;17.044;2023-06-01T03:48:47;37.25;34.00;24.50
68198;PMS7003;55021;51.554;17.044;2023-06-01T04:03:50;36.50;33.00;23.00
68198;PMS7003;55021;51.554;17.044;2023-06-01T04:18:52;39.00;33.75;24.00
68198;PMS7003;55021;51.554;17.044;2023-06-01T04:33:54;40.00;34.50;23.25
68198;PMS7003;55021;51.554;17.044;2023-06-01T04:48:57;42.50;35.50;24.00
68198;PMS7003;55021;51.554;17.044;2023-06-01T05:04:00;34.50;31.50;22.25
68198;PMS7003;55021;51.554;17.044;2023-06-01T05:19:14;25.75;25.75;18.25
68198;PMS7003;55021;51.554;17.044;2023-06-01T05:34:18;24.75;22.00;15.00
68198;PMS7003;55021;51.554;17.044;2023-06-01T05:49:20;26.75;24.00;16.00
68198;PMS7003;55021;51.554;17.044;2023-06-01T06:04:23;27.00;25.00;18.50
68198;PMS7003;55021;51.554;17.044;2023-06-01T06:19:25;18.25;16.00;10.00
68198;PMS7003;55021;51.554;17.044;2023-06-01T06:34:28;21.25;20.50;13.50
68198;PMS7003;55021;51.554;17.044;2023-06-01T06:49:30;19.75;17.50;11.75
68198;PMS7003;55021;51.554;17.044;2023-06-01T07:04:33;15.00;14.75;9.50
68198;PMS7003;55021;51.554;17.044;2023-06-01T07:19:35;13.00;12.50;7.00
68198;PMS7003;55021;51.554;17.044;2023-06-01T07:34:38;11.00;9.75;4.50
68198;PMS7003;55021;51.554;17.044;2023-06-01T07:49:40;12.00;11.00;6.25
68198;PMS7003;55021;51.554;17.044;2023-06-01T08:04:42;14.25;13.00;6.75
68198;PMS7003;55021;51.554;17.044;2023-06-01T08:19:45;10.50;9.75;4.00
68198;PMS7003;55021;51.554;17.044;2023-06-01T08:34:47;9.75;9.75;5.75
68198;PMS7003;55021;51.554;17.044;2023-06-01T08:49:50;8.00;7.00;3.00
68198;PMS7003;55021;51.554;17.044;2023-06-01T09:04:53;9.00;8.00;4.00
68198;PMS7003;55021;51.554;17.044;2023-06-01T09:19:55;14.50;12.50;6.25
68198;PMS7003;55021;51.554;17.044;2023-06-01T09:34:58;11.50;9.75;5.00
68198;PMS7003;55021;51.554;17.044;2023-06-01T09:50:01;8.00;8.00;3.00
68198;PMS7003;55021;51.554;17.044;2023-06-01T10:05:04;9.25;7.00;2.00
68198;PMS7003;55021;51.554;17.044;2023-06-01T10:20:10;12.25;9.00;3.75
68198;PMS7003;55021;51.554;17.044;2023-06-01T10:50:42;15.50;12.00;6.00
68198;PMS7003;55021;51.554;17.044;2023-06-01T11:05:45;13.00;12.00;6.00
68198;PMS7003;55021;51.554;17.044;2023-06-01T11:20:48;14.50;14.00;7.00
68198;PMS7003;55021;51.554;17.044;2023-06-01T11:35:58;13.25;12.00;6.50
68198;PMS7003;55021;51.554;17.044;2023-06-01T11:51:01;12.75;12.50;6.00
68198;PMS7003;55021;51.554;17.044;2023-06-01T12:06:04;11.75;11.50;4.75
68198;PMS7003;55021;51.554;17.044;2023-06-01T12:21:10;11.00;10.50;5.50
68198;PMS7003;55021;51.554;17.044;2023-06-01T12:51:32;11.00;10.50;5.25
68198;PMS7003;55021;51.554;17.044;2023-06-01T13:06:35;10.25;10.00;5.00
68198;PMS7003;55021;51.554;17.044;2023-06-01T13:21:38;12.75;12.00;5.25
68198;PMS7003;55021;51.554;17.044;2023-06-01T13:36:40;13.00;11.00;5.00
68198;PMS7003;55021;51.554;17.044;2023-06-01T13:51:43;12.50;11.75;5.00
68198;PMS7003;55021;51.554;17.044;2023-06-01T14:06:45;12.25;9.50;5.00
68198;PMS7003;55021;51.554;17.044;2023-06-01T14:21:47;12.00;11.50;5.00
68198;PMS7003;55021;51.554;17.044;2023-06-01T14:36:50;11.00;11.00;5.00
68198;PMS7003;55021;51.554;17.044;2023-06-01T14:51:52;10.75;10.00;5.00
68198;PMS7003;55021;51.554;17.044;2023-06-01T15:06:54;11.25;9.75;4.75
68198;PMS7003;55021;51.554;17.044;2023-06-01T15:21:57;9.50;8.00;3.50
68198;PMS7003;55021;51.554;17.044;2023-06-01T15:37:00;14.25;12.00;6.00
68198;PMS7003;55021;51.554;17.044;2023-06-01T15:52:02;13.75;10.00;6.00
68198;PMS7003;55021;51.554;17.044;2023-06-01T16:07:06;11.00;10.00;5.00
68198;PMS7003;55021;51.554;17.044;2023-06-01T16:22:08;13.00;10.25;6.00
68198;PMS7003;55021;51.554;17.044;2023-06-01T16:37:16;11.75;10.50;5.00
68198;PMS7003;55021;51.554;17.044;2023-06-01T16:52:25;11.00;10.00;4.50
68198;PMS7003;55021;51.554;17.044;2023-06-01T17:07:30;11.50;11.00;5.00
68198;PMS7003;55021;51.554;17.044;2023-06-01T17:22:32;15.00;13.50;8.00
68198;PMS7003;55021;51.554;17.044;2023-06-01T17:37:35;14.25;12.00;6.25
68198;PMS7003;55021;51.554;17.044;2023-06-01T17:52:38;12.50;11.00;5.50
68198;PMS7003;55021;51.554;17.044;2023-06-01T18:07:40;14.00;13.00;6.00
68198;PMS7003;55021;51.554;17.044;2023-06-01T18:22:45;14.00;11.00;5.25
68198;PMS7003;55021;51.554;17.044;2023-06-01T18:37:47;14.75;13.75;6.50
68198;PMS7003;55021;51.554;17.044;2023-06-01T18:52:51;12.00;12.00;6.00
68198;PMS7003;55021;51.554;17.044;2023-06-01T19:07:54;15.25;15.00;8.00
68198;PMS7003;55021;51.554;17.044;2023-06-01T19:22:57;19.75;18.25;12.00
68198;PMS7003;55021;51.554;17.044;2023-06-01T19:37:59;23.50;22.00;14.00
68198;PMS7003;55021;51.554;17.044;2023-06-01T19:53:16;27.00;25.25;13.75
68198;PMS7003;55021;51.554;17.044;2023-06-01T20:08:18;28.25;23.00;12.25
68198;PMS7003;55021;51.554;17.044;2023-06-01T20:23:31;26.00;23.00;12.75
68198;PMS7003;55021;51.554;17.044;2023-06-01T20:38:34;27.00;21.50;12.00
68198;PMS7003;55021;51.554;17.044;2023-06-01T20:53:39;28.25;20.50;12.50
68198;PMS7003;55021;51.554;17.044;2023-06-01T21:08:41;19.75;18.00;10.75
68198;PMS7003;55021;51.554;17.044;2023-06-01T21:23:44;21.75;19.00;11.00
68198;PMS7003;55021;51.554;17.044;2023-06-01T21:38:47;23.75;20.00;11.50
68198;PMS7003;55021;51.554;17.044;2023-06-01T21:53:49;22.75;19.00;10.75
68198;PMS7003;55021;51.554;17.044;2023-06-01T22:08:52;22.00;20.25;11.00
68198;PMS7003;55021;51.554;17.044;2023-06-01T22:23:54;23.25;20.50;11.75
68198;PMS7003;55021;51.554;17.044;2023-06-01T22:38:56;25.00;19.50;11.00
68198;PMS7003;55021;51.554;17.044;2023-06-01T22:54:01;21.00;19.75;10.25
68198;PMS7003;55021;51.554;17.044;2023-06-01T23:09:04;20.00;19.00;10.00
68198;PMS7003;55021;51.554;17.044;2023-06-01T23:24:06;20.25;18.75;10.00
68198;PMS7003;55021;51.554;17.044;2023-06-01T23:39:09;19.00;17.00;10.00
68198;PMS7003;55021;51.554;17.044;2023-06-01T23:54:12;21.00;19.25;11.00
